Time;durP1;ratioP1;P1;durP2;ratioP2;P2;SDS_P1;SDS_P2;PMS_P1;PMS_P2;Temp;Humidity;BMP_temperature;BMP_pressure;BME280_temperature;BME280_humidity;BME280_pressure;Samples;Min_cycle;Max_cycle;Signal;HPM_P1;HPM_P2
2024/01/14 00:00:00;;;;;;;;;;;20.60;29.20;;;;;;4993649;28;20403;-53
2024/01/14 00:02:27;;;;;;;;;;;20.60;29.20;;;;;;4993736;28;19933;-54
2024/01/14 00:04:54;;;;;;;;;;;20.60;29.20;;;;;;4993594;28;19926;-56
2024/01/14 00:07:21;;;;;;;;;;;20.60;29.30;;;;;;4993712;28;19949;-55
2024/01/14 00:09:48;;;;;;;;;;;20.60;29.30;;;;;;4993460;28;19925;-55
2024/01/14 00:12:15;;;;;;;;;;;20.60;29.20;;;;;;4994014;28;19926;-56
2024/01/14 00:14:42;;;;;;;;;;;20.60;29.30;;;;;;4993729;28;19980;-54
2024/01/14 00:17:10;;;;;;;;;;;20.60;29.30;;;;;;4976454;28;20415;-56
2024/01/14 00:19:37;;;;;;;;;;;20.60;29.20;;;;;;4993740;28;20384;-53
2024/01/14 00:22:04;;;;;;;;;;;20.50;29.20;;;;;;4993381;28;19926;-51
2024/01/14 00:24:32;;;;;;;;;;;20.50;29.20;;;;;;4976315;28;20020;-56
2024/01/14 00:26:59;;;;;;;;;;;20.50;29.20;;;;;;4993452;28;19926;-54
2024/01/14 00:29:26;;;;;;;;;;;20.50;29.20;;;;;;4993861;28;19926;-54
2024/01/14 00:31:53;;;;;;;;;;;20.50;29.20;;;;;;4993387;28;19925;-55
2024/01/14 00:34:20;;;;;;;;;;;20.50;29.30;;;;;;4993531;28;19930;-56
2024/01/14 00:36:47;;;;;;;;;;;20.50;29.30;;;;;;4993281;28;19926;-55
2024/01/14 00:39:14;;;;;;;;;;;20.50;29.20;;;;;;4996071;28;19926;-56
2024/01/14 00:41:41;;;;;;;;;;;20.50;29.20;;;;;;4996925;28;19933;-52
2024/01/14 00:44:08;;;;;;;;;;;20.50;29.30;;;;;;4996855;28;20012;-56
2024/01/14 00:46:35;;;;;;;;;;;20.50;29.20;;;;;;4997252;28;20418;-54
2024/01/14 00:49:01;;;;;;;;;;;20.50;29.20;;;;;;4996949;28;20295;-53
2024/01/14 00:51:29;;;;;;;;;;;20.60;29.20;;;;;;4996733;28;20016;-56
2024/01/14 00:53:56;;;;;;;;;;;20.60;29.20;;;;;;4996760;28;19926;-56
2024/01/14 00:56:23;;;;;;;;;;;20.60;29.20;;;;;;4996997;28;19926;-55
2024/01/14 00:58:49;;;;;;;;;;;20.60;29.20;;;;;;4996753;28;19925;-55
2024/01/14 01:01:16;;;;;;;;;;;20.50;29.20;;;;;;4996777;28;19980;-56
2024/01/14 01:03:43;;;;;;;;;;;20.50;29.20;;;;;;4996674;28;20016;-55
2024/01/14 01:06:11;;;;;;;;;;;20.50;29.20;;;;;;4996501;28;20391;-55
2024/01/14 01:08:38;;;;;;;;;;;20.50;29.20;;;;;;4996554;28;20303;-56
2024/01/14 01:11:05;;;;;;;;;;;20.50;29.20;;;;;;4996437;28;20369;-56
2024/01/14 01:13:32;;;;;;;;;;;20.50;29.30;;;;;;4996722;28;19926;-55
2024/01/14 01:15:59;;;;;;;;;;;20.40;29.20;;;;;;4996688;28;19936;-54
2024/01/14 01:18:26;;;;;;;;;;;20.50;29.20;;;;;;4996702;28;19957;-55
2024/01/14 01:20:53;;;;;;;;;;;20.50;29.20;;;;;;4996591;28;19926;-56
2024/01/14 01:23:20;;;;;;;;;;;20.50;29.30;;;;;;4996687;28;19944;-53
2024/01/14 01:25:47;;;;;;;;;;;20.40;29.20;;;;;;4996487;28;19926;-57
2024/01/14 01:28:14;;;;;;;;;;;20.40;29.20;;;;;;4996545;28;19926;-56
2024/01/14 01:30:41;;;;;;;;;;;20.40;29.20;;;;;;4996476;28;19926;-56
2024/01/14 01:33:08;;;;;;;;;;;20.40;29.20;;;;;;4996054;28;20397;-56
2024/01/14 01:35:35;;;;;;;;;;;20.40;29.20;;;;;;4996021;28;19932;-52
2024/01/14 01:38:02;;;;;;;;;;;20.40;29.60;;;;;;4996219;28;20065;-56
2024/01/14 01:40:29;;;;;;;;;;;20.40;29.20;;;;;;4996152;28;20301;-51
2024/01/14 01:42:56;;;;;;;;;;;20.40;29.20;;;;;;4996016;28;19980;-56
2024/01/14 01:45:23;;;;;;;;;;;20.40;29.20;;;;;;4996180;28;19925;-55
2024/01/14 01:47:50;;;;;;;;;;;20.40;29.20;;;;;;4995874;28;19989;-53
2024/01/14 01:50:17;;;;;;;;;;;20.40;29.20;;;;;;4978230;28;20331;-55
2024/01/14 01:52:44;;;;;;;;;;;20.40;29.20;;;;;;4996049;28;19945;-55
2024/01/14 01:55:11;;;;;;;;;;;20.50;29.20;;;;;;5000277;28;19980;-58
2024/01/14 01:57:38;;;;;;;;;;;20.50;29.20;;;;;;5015386;28;19925;-56
2024/01/14 02:00:08;;;;;;;;;;;20.50;29.20;;;;;;5015479;28;19925;-55
2024/01/14 02:02:39;;;;;;;;;;;20.50;29.20;;;;;;4997967;28;19972;-56
2024/01/14 02:05:07;;;;;;;;;;;20.50;29.20;;;;;;5015356;28;20449;-55
2024/01/14 02:07:34;;;;;;;;;;;20.50;29.20;;;;;;5015204;28;19926;-56
2024/01/14 02:10:01;;;;;;;;;;;20.40;29.10;;;;;;5014804;28;20020;-56
2024/01/14 02:12:28;;;;;;;;;;;20.40;29.10;;;;;;5015240;28;19925;-56
2024/01/14 02:14:55;;;;;;;;;;;20.40;29.20;;;;;;5014716;28;19932;-55
2024/01/14 02:17:22;;;;;;;;;;;20.40;29.20;;;;;;5014800;28;19930;-55
2024/01/14 02:19:49;;;;;;;;;;;20.40;29.20;;;;;;5014771;28;20367;-56
2024/01/14 02:22:19;;;;;;;;;;;20.40;29.20;;;;;;5014872;28;19926;-56
2024/01/14 02:24:46;;;;;;;;;;;20.40;29.20;;;;;;5014947;28;20282;-54
2024/01/14 02:27:12;;;;;;;;;;;20.40;29.20;;;;;;5015108;28;19972;-57
2024/01/14 02:29:40;;;;;;;;;;;20.40;29.20;;;;;;5015088;28;20268;-52
2024/01/14 02:32:07;;;;;;;;;;;20.40;29.20;;;;;;5014872;28;19929;-56
2024/01/14 02:34:35;;;;;;;;;;;20.40;29.20;;;;;;5014587;28;19926;-56
2024/01/14 02:37:03;;;;;;;;;;;20.40;29.20;;;;;;5014624;28;20279;-55
2024/01/14 02:39:30;;;;;;;;;;;20.30;29.20;;;;;;5014484;28;20043;-55
2024/01/14 02:41:57;;;;;;;;;;;20.40;29.20;;;;;;5014323;28;20397;-54
2024/01/14 02:44:24;;;;;;;;;;;20.30;29.60;;;;;;5014319;28;19933;-56
2024/01/14 02:46:51;;;;;;;;;;;20.30;29.10;;;;;;5014372;28;19957;-55
2024/01/14 02:49:18;;;;;;;;;;;20.30;29.10;;;;;;5014689;28;19964;-56
2024/01/14 02:51:45;;;;;;;;;;;20.30;29.20;;;;;;5013945;28;19929;-56
2024/01/14 02:54:12;;;;;;;;;;;20.30;29.20;;;;;;5014501;28;19930;-55
2024/01/14 02:56:40;;;;;;;;;;;20.30;29.20;;;;;;5014408;28;20286;-55
2024/01/14 02:59:07;;;;;;;;;;;20.30;29.10;;;;;;5014380;28;19976;-55
2024/01/14 03:01:33;;;;;;;;;;;20.30;29.10;;;;;;4996035;28;19983;-56
2024/01/14 03:04:00;;;;;;;;;;;20.40;29.20;;;;;;5014211;28;19929;-56
2024/01/14 03:06:28;;;;;;;;;;;20.40;29.20;;;;;;5013885;28;19925;-52
2024/01/14 03:08:55;;;;;;;;;;;20.40;29.20;;;;;;4977909;28;20287;-55
2024/01/14 03:11:22;;;;;;;;;;;20.40;29.20;;;;;;4994352;28;20020;-58
2024/01/14 03:13:48;;;;;;;;;;;20.40;29.10;;;;;;4994382;28;19929;-57
2024/01/14 03:16:15;;;;;;;;;;;20.40;29.10;;;;;;4994220;28;19926;-56
2024/01/14 03:18:42;;;;;;;;;;;20.40;29.10;;;;;;4994525;28;19953;-56
2024/01/14 03:21:17;;;;;;;;;;;20.40;29.10;;;;;;4994068;28;19926;-56
2024/01/14 03:23:45;;;;;;;;;;;20.40;29.10;;;;;;4994431;28;19926;-55
2024/01/14 03:26:12;;;;;;;;;;;20.30;29.10;;;;;;4994424;28;19930;-54
2024/01/14 03:28:39;;;;;;;;;;;20.30;29.10;;;;;;4994329;28;19930;-55
2024/01/14 03:31:09;;;;;;;;;;;20.30;29.20;;;;;;4994322;28;19934;-55
2024/01/14 03:33:36;;;;;;;;;;;20.30;29.20;;;;;;4993924;28;20342;-55
2024/01/14 03:36:03;;;;;;;;;;;20.30;29.20;;;;;;4993866;28;19930;-56
2024/01/14 03:38:30;;;;;;;;;;;20.30;29.20;;;;;;5003470;28;19973;-55
2024/01/14 03:40:57;;;;;;;;;;;20.30;29.20;;;;;;5013536;28;19926;-57
2024/01/14 03:43:24;;;;;;;;;;;20.30;29.10;;;;;;5013518;28;20295;-54
2024/01/14 03:45:51;;;;;;;;;;;20.30;29.10;;;;;;5011989;28;19975;-56
2024/01/14 03:48:18;;;;;;;;;;;20.30;29.10;;;;;;4993857;28;20401;-56
2024/01/14 03:50:45;;;;;;;;;;;20.30;29.20;;;;;;4993743;28;20419;-56
2024/01/14 03:53:12;;;;;;;;;;;20.30;29.20;;;;;;4993948;28;20050;-51
2024/01/14 03:55:39;;;;;;;;;;;20.30;29.20;;;;;;4993772;28;19925;-53
2024/01/14 03:58:06;;;;;;;;;;;20.30;29.20;;;;;;4994315;28;19958;-54
2024/01/14 04:00:33;;;;;;;;;;;20.30;29.20;;;;;;4993949;28;19926;-56
2024/01/14 04:03:00;;;;;;;;;;;20.30;29.20;;;;;;4976952;28;19926;-56
2024/01/14 04:05:27;;;;;;;;;;;20.30;29.20;;;;;;4993851;28;19926;-54
2024/01/14 04:07:54;;;;;;;;;;;20.30;29.20;;;;;;4993744;28;19926;-56
2024/01/14 04:10:21;;;;;;;;;;;20.30;29.10;;;;;;4993580;28;20375;-55
2024/01/14 04:12:48;;;;;;;;;;;20.20;29.10;;;;;;4994120;28;20294;-55
2024/01/14 04:15:15;;;;;;;;;;;20.30;29.10;;;;;;4997854;28;19980;-56
2024/01/14 04:17:42;;;;;;;;;;;20.30;29.20;;;;;;4997487;28;20441;-55
2024/01/14 04:20:09;;;;;;;;;;;20.30;29.10;;;;;;4997783;28;19996;-56
2024/01/14 04:22:36;;;;;;;;;;;20.30;29.10;;;;;;4997411;28;20414;-54
2024/01/14 04:25:03;;;;;;;;;;;20.40;29.10;;;;;;4997650;28;20343;-56
2024/01/14 04:27:30;;;;;;;;;;;20.40;29.10;;;;;;4997577;28;20280;-56
2024/01/14 04:29:57;;;;;;;;;;;20.30;29.10;;;;;;4997173;28;19933;-56
2024/01/14 04:32:24;;;;;;;;;;;20.30;29.10;;;;;;4997492;28;19926;-54
2024/01/14 04:34:52;;;;;;;;;;;20.30;29.10;;;;;;4997079;28;20443;-56
2024/01/14 04:37:19;;;;;;;;;;;20.30;29.10;;;;;;4997417;28;19980;-54
2024/01/14 04:39:45;;;;;;;;;;;20.30;28.90;;;;;;4997328;28;19961;-55
2024/01/14 04:42:12;;;;;;;;;;;20.30;28.80;;;;;;4997380;28;19972;-56
2024/01/14 04:44:39;;;;;;;;;;;20.30;28.70;;;;;;4997044;28;19968;-55
2024/01/14 04:47:06;;;;;;;;;;;20.30;28.60;;;;;;4997189;28;19934;-55
2024/01/14 04:49:33;;;;;;;;;;;20.30;28.50;;;;;;4996964;28;20391;-55
2024/01/14 04:52:01;;;;;;;;;;;20.30;28.50;;;;;;4997106;28;20394;-51
2024/01/14 04:54:28;;;;;;;;;;;20.30;28.40;;;;;;4996665;28;20430;-55
2024/01/14 04:56:55;;;;;;;;;;;20.30;28.40;;;;;;4996820;28;19926;-56
2024/01/14 04:59:22;;;;;;;;;;;20.30;28.40;;;;;;4997201;28;20398;-56
2024/01/14 05:01:49;;;;;;;;;;;20.30;28.40;;;;;;4996510;28;20402;-54
2024/01/14 05:04:16;;;;;;;;;;;20.30;28.30;;;;;;4996977;28;19972;-56
2024/01/14 05:06:42;;;;;;;;;;;20.30;28.30;;;;;;4996613;28;19925;-58
2024/01/14 05:09:09;;;;;;;;;;;20.30;28.30;;;;;;4996738;28;19926;-56
2024/01/14 05:11:37;;;;;;;;;;;20.30;28.30;;;;;;4997013;28;19972;-56
2024/01/14 05:14:03;;;;;;;;;;;20.30;28.20;;;;;;4996381;28;20286;-56
2024/01/14 05:16:30;;;;;;;;;;;20.40;28.20;;;;;;4996310;28;20053;-56
2024/01/14 05:18:57;;;;;;;;;;;20.40;28.20;;;;;;5012657;28;19933;-57
2024/01/14 05:21:24;;;;;;;;;;;20.40;28.10;;;;;;5016286;28;19929;-55
2024/01/14 05:23:51;;;;;;;;;;;20.40;28.10;;;;;;5016128;28;19968;-53
2024/01/14 05:26:18;;;;;;;;;;;20.40;28.10;;;;;;5015058;28;19932;-56
2024/01/14 05:28:45;;;;;;;;;;;20.40;28.10;;;;;;5015716;28;20013;-56
2024/01/14 05:31:12;;;;;;;;;;;20.50;28.00;;;;;;5016016;28;20398;-57
2024/01/14 05:33:40;;;;;;;;;;;20.50;28.00;;;;;;4998685;28;19925;-56
2024/01/14 05:36:07;;;;;;;;;;;20.50;28.00;;;;;;5015552;28;19929;-56
2024/01/14 05:38:34;;;;;;;;;;;20.50;28.00;;;;;;5015748;28;20021;-56
2024/01/14 05:41:01;;;;;;;;;;;20.50;28.00;;;;;;5015927;28;19926;-57
2024/01/14 05:43:27;;;;;;;;;;;20.50;28.00;;;;;;5015824;28;19925;-57
2024/01/14 05:45:54;;;;;;;;;;;20.50;28.00;;;;;;5015700;28;19975;-55
2024/01/14 05:48:22;;;;;;;;;;;20.50;28.00;;;;;;5015504;28;19925;-53
2024/01/14 05:50:50;;;;;;;;;;;20.50;27.90;;;;;;5015701;28;19995;-57
2024/01/14 05:53:17;;;;;;;;;;;20.50;28.00;;;;;;5015662;28;19933;-54
2024/01/14 05:55:44;;;;;;;;;;;20.50;27.90;;;;;;5015212;28;19933;-56
2024/01/14 05:58:11;;;;;;;;;;;20.50;27.90;;;;;;5015313;28;20371;-54
2024/01/14 06:00:38;;;;;;;;;;;20.50;27.80;;;;;;5015484;28;19936;-55
2024/01/14 06:03:05;;;;;;;;;;;20.60;27.90;;;;;;5015638;28;19929;-56
2024/01/14 06:05:32;;;;;;;;;;;20.60;27.90;;;;;;5015406;28;19972;-57
2024/01/14 06:07:59;;;;;;;;;;;20.60;27.80;;;;;;5015039;28;19932;-55
2024/01/14 06:10:26;;;;;;;;;;;20.60;27.80;;;;;;4997627;28;19979;-56
2024/01/14 06:12:53;;;;;;;;;;;20.60;27.70;;;;;;5015300;28;19991;-56
2024/01/14 06:15:20;;;;;;;;;;;20.60;27.70;;;;;;5014933;28;19925;-56
2024/01/14 06:17:47;;;;;;;;;;;20.70;27.70;;;;;;5014920;28;19932;-56
2024/01/14 06:20:14;;;;;;;;;;;20.70;27.70;;;;;;5014781;28;19931;-56
2024/01/14 06:22:41;;;;;;;;;;;20.70;27.60;;;;;;5015146;28;19926;-56
2024/01/14 06:25:07;;;;;;;;;;;20.70;27.60;;;;;;5014647;28;19926;-56
2024/01/14 06:27:34;;;;;;;;;;;20.80;27.60;;;;;;5015063;28;19999;-56
2024/01/14 06:30:03;;;;;;;;;;;20.70;27.50;;;;;;5014543;28;19933;-56
2024/01/14 06:32:33;;;;;;;;;;;20.80;27.50;;;;;;5014802;28;20351;-56
2024/01/14 06:35:00;;;;;;;;;;;20.80;27.50;;;;;;5014303;28;19980;-54
2024/01/14 06:37:27;;;;;;;;;;;20.80;27.50;;;;;;5014642;28;19925;-55
2024/01/14 06:39:54;;;;;;;;;;;20.80;27.50;;;;;;5014441;28;19926;-56
2024/01/14 06:42:21;;;;;;;;;;;20.90;27.50;;;;;;5014617;28;20330;-56
2024/01/14 06:44:48;;;;;;;;;;;20.90;27.50;;;;;;5014424;28;19925;-56
2024/01/14 06:47:15;;;;;;;;;;;20.90;27.50;;;;;;5014515;28;20012;-56
2024/01/14 06:49:41;;;;;;;;;;;20.90;27.40;;;;;;5014490;28;19972;-57
2024/01/14 06:52:09;;;;;;;;;;;20.90;27.40;;;;;;5014572;28;19988;-56
2024/01/14 06:54:37;;;;;;;;;;;21.00;27.40;;;;;;5014421;28;19948;-55
2024/01/14 06:57:05;;;;;;;;;;;20.90;27.80;;;;;;5014415;28;19951;-57
2024/01/14 06:59:32;;;;;;;;;;;21.00;27.40;;;;;;5014271;28;19972;-56
2024/01/14 07:01:59;;;;;;;;;;;20.90;27.40;;;;;;5013659;28;19926;-56
2024/01/14 07:04:26;;;;;;;;;;;20.90;27.30;;;;;;4996666;28;19926;-55
2024/01/14 07:06:53;;;;;;;;;;;20.90;27.30;;;;;;5014395;28;20008;-56
2024/01/14 07:09:20;;;;;;;;;;;20.90;27.40;;;;;;5014374;28;19964;-56
2024/01/14 07:11:47;;;;;;;;;;;20.90;27.40;;;;;;5013583;28;20385;-56
2024/01/14 07:14:14;;;;;;;;;;;20.90;27.30;;;;;;5014195;28;20264;-55
2024/01/14 07:16:41;;;;;;;;;;;21.00;27.40;;;;;;5013683;28;19972;-56
2024/01/14 07:19:08;;;;;;;;;;;20.90;27.30;;;;;;5013861;28;19972;-56
2024/01/14 07:21:35;;;;;;;;;;;20.90;27.30;;;;;;5014116;28;19933;-56
2024/01/14 07:24:03;;;;;;;;;;;21.00;27.30;;;;;;5014109;28;19937;-59
2024/01/14 07:26:30;;;;;;;;;;;21.00;27.40;;;;;;5013970;28;19925;-56
2024/01/14 07:28:57;;;;;;;;;;;21.00;27.30;;;;;;5014107;28;19995;-56
2024/01/14 07:31:27;;;;;;;;;;;21.00;27.30;;;;;;5013639;28;19930;-56
2024/01/14 07:33:54;;;;;;;;;;;21.00;27.30;;;;;;5013576;28;19925;-56
2024/01/14 07:36:21;;;;;;;;;;;21.00;27.30;;;;;;5013733;28;19926;-56
2024/01/14 07:38:52;;;;;;;;;;;21.00;27.20;;;;;;5013748;28;19931;-56
2024/01/14 07:41:19;;;;;;;;;;;21.10;27.30;;;;;;4996160;28;19925;-55
2024/01/14 07:43:46;;;;;;;;;;;21.10;27.30;;;;;;5013533;28;19925;-54
2024/01/14 07:46:13;;;;;;;;;;;21.10;27.30;;;;;;5013749;28;19926;-56
2024/01/14 07:48:42;;;;;;;;;;;21.10;27.30;;;;;;5017031;28;20405;-56
2024/01/14 07:51:09;;;;;;;;;;;21.10;27.20;;;;;;5019956;28;19925;-62
2024/01/14 07:53:37;;;;;;;;;;;21.20;27.20;;;;;;5020019;28;19925;-58
2024/01/14 07:56:04;;;;;;;;;;;21.20;27.20;;;;;;5020182;28;19936;-57
2024/01/14 07:58:31;;;;;;;;;;;21.20;27.10;;;;;;5020060;28;20414;-59
2024/01/14 08:00:58;;;;;;;;;;;21.20;27.10;;;;;;5020150;28;19932;-63
2024/01/14 08:03:29;;;;;;;;;;;21.20;27.10;;;;;;5019896;28;20440;-56
2024/01/14 08:05:57;;;;;;;;;;;21.30;27.20;;;;;;5020140;28;19925;-63
2024/01/14 08:08:25;;;;;;;;;;;21.20;27.10;;;;;;5019863;28;19992;-60
2024/01/14 08:10:51;;;;;;;;;;;21.30;27.20;;;;;;5019882;28;19925;-57
2024/01/14 08:13:19;;;;;;;;;;;21.30;27.20;;;;;;5019965;28;20383;-60
2024/01/14 08:15:46;;;;;;;;;;;21.30;27.10;;;;;;5019632;28;20318;-58
2024/01/14 08:18:27;;;;;;;;;;;21.40;27.20;;;;;;5020157;28;19925;-61
2024/01/14 08:20:54;;;;;;;;;;;21.40;27.20;;;;;;5020088;28;19925;-62
2024/01/14 08:23:21;;;;;;;;;;;21.40;27.20;;;;;;5019750;28;19925;-63
2024/01/14 08:25:48;;;;;;;;;;;21.40;27.10;;;;;;5020030;28;19952;-64
2024/01/14 08:28:15;;;;;;;;;;;21.50;27.20;;;;;;5019857;28;19940;-61
2024/01/14 08:30:42;;;;;;;;;;;21.50;27.20;;;;;;5019795;28;19976;-69
2024/01/14 08:33:09;;;;;;;;;;;21.50;27.20;;;;;;5020024;28;19926;-58
2024/01/14 08:35:37;;;;;;;;;;;21.50;27.10;;;;;;5019567;28;19972;-58
2024/01/14 08:38:04;;;;;;;;;;;21.60;27.20;;;;;;5019815;28;19929;-60
2024/01/14 08:40:31;;;;;;;;;;;21.60;27.20;;;;;;5019514;28;20019;-58
2024/01/14 08:42:58;;;;;;;;;;;21.60;27.10;;;;;;5019500;28;19940;-55
2024/01/14 08:45:24;;;;;;;;;;;21.60;27.10;;;;;;5019877;28;19932;-52
2024/01/14 08:47:52;;;;;;;;;;;21.60;27.10;;;;;;5019901;28;19926;-55
2024/01/14 08:50:20;;;;;;;;;;;21.70;27.20;;;;;;5019740;28;20020;-56
2024/01/14 08:52:47;;;;;;;;;;;21.70;27.20;;;;;;5019836;28;20375;-55
2024/01/14 08:55:14;;;;;;;;;;;21.70;27.10;;;;;;5019366;28;19933;-54
2024/01/14 08:57:41;;;;;;;;;;;21.80;27.20;;;;;;5019478;28;20434;-54
2024/01/14 09:00:11;;;;;;;;;;;21.80;27.10;;;;;;5017551;28;20015;-53
2024/01/14 09:02:39;;;;;;;;;;;21.90;27.10;;;;;;5016317;28;20379;-56
2024/01/14 09:05:06;;;;;;;;;;;21.90;27.10;;;;;;5016153;28;19933;-54
2024/01/14 09:07:36;;;;;;;;;;;22.00;27.10;;;;;;5016349;28;19925;-56
2024/01/14 09:10:03;;;;;;;;;;;22.00;27.00;;;;;;5016464;28;19929;-54
2024/01/14 09:12:31;;;;;;;;;;;22.00;27.00;;;;;;5016447;28;19947;-56
2024/01/14 09:14:58;;;;;;;;;;;22.00;27.00;;;;;;5016039;28;20021;-55
2024/01/14 09:17:26;;;;;;;;;;;22.10;27.00;;;;;;5016121;28;19973;-57
2024/01/14 09:19:53;;;;;;;;;;;22.10;27.00;;;;;;5016217;28;19929;-57
2024/01/14 09:22:20;;;;;;;;;;;22.10;26.90;;;;;;5017489;28;19929;-60
2024/01/14 09:24:47;;;;;;;;;;;22.10;26.90;;;;;;5019581;28;19929;-60
2024/01/14 09:27:14;;;;;;;;;;;22.20;26.90;;;;;;5019544;28;19948;-60
2024/01/14 09:29:41;;;;;;;;;;;22.20;26.90;;;;;;5019422;28;19929;-61
2024/01/14 09:32:08;;;;;;;;;;;22.20;27.00;;;;;;5019255;28;20028;-60
2024/01/14 09:34:35;;;;;;;;;;;22.20;26.90;;;;;;5018819;28;19925;-61
2024/01/14 09:37:03;;;;;;;;;;;22.20;26.90;;;;;;5001954;28;19949;-60
2024/01/14 09:39:29;;;;;;;;;;;22.20;27.40;;;;;;5019052;28;19926;-61
2024/01/14 09:42:07;;;;;;;;;;;22.20;26.90;;;;;;5019025;28;20286;-61
2024/01/14 09:44:34;;;;;;;;;;;22.30;27.00;;;;;;5019171;28;19926;-61
2024/01/14 09:47:03;;;;;;;;;;;22.30;27.00;;;;;;5019199;28;19926;-61
2024/01/14 09:49:30;;;;;;;;;;;22.30;27.00;;;;;;5018939;28;19933;-60
2024/01/14 09:51:58;;;;;;;;;;;22.30;27.00;;;;;;5018762;28;20001;-61
2024/01/14 09:54:25;;;;;;;;;;;22.30;27.00;;;;;;5018889;28;20406;-61
2024/01/14 09:56:53;;;;;;;;;;;22.40;27.10;;;;;;5018839;28;19948;-61
2024/01/14 09:59:21;;;;;;;;;;;22.40;27.10;;;;;;5018679;28;19930;-61
2024/01/14 10:01:49;;;;;;;;;;;22.50;27.10;;;;;;5018572;28;19925;-61
2024/01/14 10:04:17;;;;;;;;;;;22.50;27.10;;;;;;5018717;28;19981;-61
2024/01/14 10:06:45;;;;;;;;;;;22.50;27.10;;;;;;5018652;28;20295;-60
2024/01/14 10:09:12;;;;;;;;;;;22.50;27.00;;;;;;5018398;28;20397;-61
2024/01/14 10:11:39;;;;;;;;;;;22.60;27.10;;;;;;5017993;28;19936;-61
2024/01/14 10:14:06;;;;;;;;;;;22.60;27.10;;;;;;5018616;28;19929;-61
2024/01/14 10:16:38;;;;;;;;;;;22.60;27.00;;;;;;5018279;28;19926;-60
2024/01/14 10:19:21;;;;;;;;;;;22.60;27.00;;;;;;5018409;28;19973;-61
2024/01/14 10:21:48;;;;;;;;;;;22.60;27.00;;;;;;5018017;28;20367;-60
2024/01/14 10:24:35;;;;;;;;;;;22.70;27.00;;;;;;5018026;28;20402;-60
2024/01/14 10:27:02;;;;;;;;;;;22.70;27.00;;;;;;5018324;28;20024;-61
2024/01/14 10:29:29;;;;;;;;;;;22.70;27.00;;;;;;5018316;28;19937;-61
2024/01/14 10:31:56;;;;;;;;;;;22.70;27.00;;;;;;5017801;28;20430;-61
2024/01/14 10:34:24;;;;;;;;;;;22.70;27.00;;;;;;5017869;28;19933;-61
2024/01/14 10:36:59;;;;;;;;;;;22.70;27.00;;;;;;5017917;28;19930;-60
2024/01/14 10:39:29;;;;;;;;;;;22.70;27.00;;;;;;5017848;28;19925;-61
2024/01/14 10:41:56;;;;;;;;;;;22.70;26.90;;;;;;5017850;28;19937;-61
2024/01/14 10:44:24;;;;;;;;;;;22.70;26.90;;;;;;5006340;28;20012;-61
2024/01/14 10:46:52;;;;;;;;;;;22.70;26.90;;;;;;4998086;28;19972;-61
2024/01/14 10:49:22;;;;;;;;;;;22.70;26.90;;;;;;4980678;28;19938;-61
2024/01/14 10:51:54;;;;;;;;;;;22.80;26.90;;;;;;4998110;28;19926;-61
2024/01/14 10:54:33;;;;;;;;;;;22.80;26.90;;;;;;4997723;28;19930;-61
2024/01/14 10:57:08;;;;;;;;;;;22.80;26.90;;;;;;4996991;28;19948;-61
2024/01/14 10:59:36;;;;;;;;;;;22.80;26.90;;;;;;4980741;28;19933;-60
2024/01/14 11:02:11;;;;;;;;;;;22.80;26.90;;;;;;4997742;28;19984;-61
2024/01/14 11:04:38;;;;;;;;;;;22.80;26.90;;;;;;4997819;28;19936;-60
2024/01/14 11:07:05;;;;;;;;;;;22.80;26.90;;;;;;4997437;28;19926;-61
2024/01/14 11:09:32;;;;;;;;;;;22.80;26.90;;;;;;4998127;28;19965;-61
2024/01/14 11:12:06;;;;;;;;;;;22.80;26.90;;;;;;4997813;28;19926;-61
2024/01/14 11:14:38;;;;;;;;;;;22.80;26.90;;;;;;4997819;28;19948;-61
2024/01/14 11:17:18;;;;;;;;;;;22.90;27.00;;;;;;4997406;28;19926;-61
2024/01/14 11:19:46;;;;;;;;;;;22.90;27.00;;;;;;4997778;28;20028;-61
2024/01/14 11:22:20;;;;;;;;;;;22.90;27.00;;;;;;5000378;28;19934;-60
2024/01/14 11:25:01;;;;;;;;;;;22.90;26.90;;;;;;5006181;28;21369;-61
2024/01/14 11:27:29;;;;;;;;;;;23.00;26.90;;;;;;5013800;28;19944;-61
2024/01/14 11:29:58;;;;;;;;;;;23.00;26.90;;;;;;5011791;28;19933;-62
2024/01/14 11:32:26;;;;;;;;;;;23.00;26.90;;;;;;5012967;28;20410;-61
2024/01/14 11:34:54;;;;;;;;;;;23.00;26.90;;;;;;5007385;28;19932;-62
2024/01/14 11:37:40;;;;;;;;;;;23.00;26.90;;;;;;5002502;28;19972;-61
2024/01/14 11:40:25;;;;;;;;;;;23.00;26.90;;;;;;5004112;28;19999;-61
2024/01/14 11:43:04;;;;;;;;;;;23.00;26.90;;;;;;5013973;28;19948;-62
2024/01/14 11:45:32;;;;;;;;;;;23.00;26.80;;;;;;5015487;28;19968;-62
2024/01/14 11:48:01;;;;;;;;;;;23.00;26.80;;;;;;5009145;28;20382;-61
2024/01/14 11:50:28;;;;;;;;;;;23.00;26.80;;;;;;5016753;28;20000;-61
2024/01/14 11:52:57;;;;;;;;;;;23.00;26.80;;;;;;5017185;28;19932;-61
2024/01/14 11:55:28;;;;;;;;;;;23.00;26.80;;;;;;5016756;28;19926;-61
2024/01/14 11:57:55;;;;;;;;;;;23.00;26.80;;;;;;5016571;28;19926;-60
2024/01/14 12:00:24;;;;;;;;;;;23.00;26.80;;;;;;5016527;28;20021;-61
2024/01/14 12:03:07;;;;;;;;;;;23.00;26.70;;;;;;5015892;28;19933;-60
2024/01/14 12:05:35;;;;;;;;;;;23.10;26.80;;;;;;5016373;28;20325;-61
2024/01/14 12:08:06;;;;;;;;;;;23.10;26.80;;;;;;5016900;28;19929;-61
2024/01/14 12:10:35;;;;;;;;;;;23.10;26.80;;;;;;5012462;28;20361;-61
2024/01/14 12:13:03;;;;;;;;;;;23.10;26.80;;;;;;5010317;28;19979;-61
2024/01/14 12:15:31;;;;;;;;;;;23.10;26.70;;;;;;5014875;28;19940;-60
2024/01/14 12:18:04;;;;;;;;;;;23.10;26.70;;;;;;5016564;28;19953;-60
2024/01/14 12:20:31;;;;;;;;;;;23.10;26.70;;;;;;5016026;28;19925;-61
2024/01/14 12:23:00;;;;;;;;;;;23.10;26.80;;;;;;5005655;28;19925;-61
2024/01/14 12:25:27;;;;;;;;;;;23.10;26.70;;;;;;5012309;28;19926;-61
2024/01/14 12:27:57;;;;;;;;;;;23.10;26.70;;;;;;5011254;28;19933;-61
2024/01/14 12:30:30;;;;;;;;;;;23.20;26.70;;;;;;5014264;28;19979;-60
2024/01/14 12:32:58;;;;;;;;;;;23.30;26.70;;;;;;5013359;28;20435;-61
2024/01/14 12:35:35;;;;;;;;;;;23.30;26.70;;;;;;5016359;28;19932;-60
2024/01/14 12:38:03;;;;;;;;;;;23.30;26.70;;;;;;5018760;28;19929;-60
2024/01/14 12:40:30;;;;;;;;;;;23.20;26.60;;;;;;5018016;28;19995;-62
2024/01/14 12:42:58;;;;;;;;;;;23.20;26.60;;;;;;5018698;28;20338;-62
2024/01/14 12:45:25;;;;;;;;;;;23.20;26.60;;;;;;5002621;28;19932;-62
2024/01/14 12:47:58;;;;;;;;;;;23.20;26.60;;;;;;5016722;28;20012;-62
2024/01/14 12:50:26;;;;;;;;;;;23.10;26.60;;;;;;5017915;28;19932;-62
2024/01/14 12:52:58;;;;;;;;;;;23.10;26.60;;;;;;5020299;28;19988;-62
2024/01/14 12:55:29;;;;;;;;;;;23.10;26.70;;;;;;5019400;28;19929;-62
2024/01/14 12:58:00;;;;;;;;;;;23.10;26.70;;;;;;5014497;28;19932;-62
2024/01/14 13:00:28;;;;;;;;;;;23.10;26.60;;;;;;5017387;28;20023;-60
2024/01/14 13:02:57;;;;;;;;;;;23.10;26.60;;;;;;5018825;28;20302;-61
2024/01/14 13:05:24;;;;;;;;;;;23.10;26.70;;;;;;5002384;28;19926;-61
2024/01/14 13:07:51;;;;;;;;;;;23.10;26.70;;;;;;4998106;28;20299;-60
2024/01/14 13:10:19;;;;;;;;;;;23.10;26.70;;;;;;5016711;28;20441;-61
2024/01/14 13:12:46;;;;;;;;;;;23.10;26.70;;;;;;5019889;28;20004;-61
2024/01/14 13:15:13;;;;;;;;;;;23.10;26.70;;;;;;5019390;28;19981;-61
2024/01/14 13:17:41;;;;;;;;;;;23.10;26.70;;;;;;5017219;28;20414;-61
2024/01/14 13:20:09;;;;;;;;;;;23.10;26.70;;;;;;5016504;28;19926;-61
2024/01/14 13:22:39;;;;;;;;;;;23.10;26.70;;;;;;5015504;28;19976;-61
2024/01/14 13:25:06;;;;;;;;;;;23.10;26.70;;;;;;5014486;28;20342;-61
2024/01/14 13:27:34;;;;;;;;;;;23.10;26.70;;;;;;5017888;28;20433;-60
2024/01/14 13:30:02;;;;;;;;;;;23.00;26.70;;;;;;5013449;28;19934;-61
2024/01/14 13:32:36;;;;;;;;;;;23.10;26.70;;;;;;5019131;28;19932;-60
2024/01/14 13:35:05;;;;;;;;;;;23.10;26.70;;;;;;5018117;28;20295;-61
2024/01/14 13:37:33;;;;;;;;;;;23.10;26.70;;;;;;5019456;28;19926;-61
2024/01/14 13:40:00;;;;;;;;;;;23.10;26.70;;;;;;5017906;28;19932;-61
2024/01/14 13:42:27;;;;;;;;;;;23.10;26.70;;;;;;5009273;28;19925;-61
2024/01/14 13:44:56;;;;;;;;;;;23.10;26.60;;;;;;5012445;28;20369;-61
2024/01/14 13:47:23;;;;;;;;;;;23.10;26.60;;;;;;5004575;28;19925;-60
2024/01/14 13:49:50;;;;;;;;;;;23.10;26.60;;;;;;5016382;28;20302;-60
2024/01/14 13:52:17;;;;;;;;;;;23.10;26.60;;;;;;5016162;28;20005;-60
2024/01/14 13:54:45;;;;;;;;;;;23.10;26.60;;;;;;5014166;28;20283;-61
2024/01/14 13:57:12;;;;;;;;;;;23.10;26.60;;;;;;5012437;28;19944;-61
2024/01/14 13:59:39;;;;;;;;;;;23.10;26.60;;;;;;5000474;28;19929;-61
2024/01/14 14:02:06;;;;;;;;;;;23.00;26.60;;;;;;5018459;28;20414;-61
2024/01/14 14:04:33;;;;;;;;;;;23.10;26.70;;;;;;5018693;28;20295;-61
2024/01/14 14:07:01;;;;;;;;;;;23.10;26.60;;;;;;5018854;28;19976;-61
2024/01/14 14:09:28;;;;;;;;;;;23.00;26.60;;;;;;5005882;28;20441;-61
2024/01/14 14:11:55;;;;;;;;;;;23.00;26.60;;;;;;4998721;28;19926;-62
2024/01/14 14:14:22;;;;;;;;;;;23.00;26.60;;;;;;4999120;28;20331;-62
2024/01/14 14:16:49;;;;;;;;;;;23.00;26.60;;;;;;4998459;28;19926;-62
2024/01/14 14:19:17;;;;;;;;;;;23.00;26.60;;;;;;4998626;28;19926;-62